PWSweather.com
Personal Weather Stations
Station Observations
01979
Ravne Pri CerknemSI 5282

Ravne Pri CerknemSI 5282

Lat: 46.1213916, Lon: 13.952774299999987

Elevation: 2244.094488

Station Type: Techo Line WS2307

Latest ConditionsUpdated 11:20:25 PM GMT+01:01 Sunday, Jan 20, 2019
Currently Today's Max Today's Min Today's Average
Temperature 27.7°F-2.4°C 34.3°F1.3°C 23.5°F-4.7°C 28.0°F-2.2°C
Dew Point 27.7°F-2.4°C 34.3°F1.3°C 23.5°F-4.7°C 28.0°F-2.2°C
Winds Calm Calm Calm -Calm - - Calm Calm
Wind Gusts -- -- - -
Humidity 100% 100% 100% 100%
Pressure 30.08 in1018.6 mb 30.08 in1018.6 mb 29.95 in1014.2 mb -
Precipitation - 0.08 in2.0 mm - -
Hour Temp Dew Point Humidity Winds Wind Gusts Pressure Precip Precip Rate Daily Precip Total
11:20 PM 27.7°F-2.4°C 27.7°F-2.4°C 100% Calm Calm -- 30.08 in1018.6 mb 0.00 in0.0 mm 0.00 in0.0 mm 0.08 in2.0 mm
11:10 PM 27.7°F-2.4°C 27.7°F-2.4°C 100% Calm Calm -- 30.08 in1018.6 mb 0.00 in0.0 mm 0.00 in0.0 mm 0.08 in2.0 mm
11:00 PM 27.7°F-2.4°C 27.7°F-2.4°C 100% Calm Calm -- 30.07 in1018.3 mb 0.00 in0.0 mm 0.00 in0.0 mm 0.08 in2.0 mm
10:50 PM 27.7°F-2.4°C 27.7°F-2.4°C 100% Calm Calm -- 30.07 in1018.3 mb 0.00 in0.0 mm 0.00 in0.0 mm 0.08 in2.0 mm
10:40 PM 27.7°F-2.4°C 27.7°F-2.4°C 100% Calm Calm -- 30.07 in1018.3 mb 0.00 in0.0 mm 0.00 in0.0 mm 0.08 in2.0 mm
10:30 PM 27.7°F-2.4°C 27.7°F-2.4°C 100% Calm Calm -- 30.06 in1017.9 mb 0.00 in0.0 mm 0.00 in0.0 mm 0.08 in2.0 mm
10:20 PM 27.7°F-2.4°C 27.7°F-2.4°C 100% Calm Calm -- 30.07 in1018.3 mb 0.00 in0.0 mm 0.00 in0.0 mm 0.08 in2.0 mm
10:10 PM 27.3°F-2.6°C 27.3°F-2.6°C 100% Calm Calm -- 30.06 in1017.9 mb 0.00 in0.0 mm 0.00 in0.0 mm 0.08 in2.0 mm
10:00 PM 27.5°F-2.5°C 27.5°F-2.5°C 100% Calm Calm -- 30.07 in1018.3 mb 0.00 in0.0 mm 0.00 in0.0 mm 0.08 in2.0 mm
09:50 PM 27.3°F-2.6°C 27.3°F-2.6°C 100% Calm Calm -- 30.06 in1017.9 mb 0.00 in0.0 mm 0.00 in0.0 mm 0.08 in2.0 mm
09:40 PM 27.3°F-2.6°C 27.3°F-2.6°C 100% Calm Calm -- 30.06 in1017.9 mb 0.00 in0.0 mm 0.00 in0.0 mm 0.08 in2.0 mm
09:30 PM 27.5°F-2.5°C 27.5°F-2.5°C 100% Calm Calm -- 30.06 in1017.9 mb 0.00 in0.0 mm 0.00 in0.0 mm 0.08 in2.0 mm
09:20 PM 27.7°F-2.4°C 27.7°F-2.4°C 100% Calm Calm -- 30.06 in1017.9 mb 0.00 in0.0 mm 0.00 in0.0 mm 0.08 in2.0 mm
09:10 PM 27.7°F-2.4°C 27.7°F-2.4°C 100% Calm Calm -- 30.05 in1017.6 mb 0.00 in0.0 mm 0.00 in0.0 mm 0.08 in2.0 mm
09:00 PM 27.3°F-2.6°C 27.3°F-2.6°C 100% Calm Calm -- 30.05 in1017.6 mb 0.00 in0.0 mm 0.00 in0.0 mm 0.08 in2.0 mm
08:50 PM 27.3°F-2.6°C 27.3°F-2.6°C 100% Calm Calm -- 30.05 in1017.6 mb 0.00 in0.0 mm 0.00 in0.0 mm 0.08 in2.0 mm
08:40 PM 27.3°F-2.6°C 27.3°F-2.6°C 100% Calm Calm -- 30.04 in1017.3 mb 0.00 in0.0 mm 0.00 in0.0 mm 0.08 in2.0 mm
08:30 PM 27.5°F-2.5°C 27.5°F-2.5°C 100% Calm Calm -- 30.04 in1017.3 mb 0.00 in0.0 mm 0.00 in0.0 mm 0.08 in2.0 mm
08:20 PM 27.5°F-2.5°C 27.5°F-2.5°C 100% Calm Calm -- 30.04 in1017.3 mb 0.00 in0.0 mm 0.00 in0.0 mm 0.08 in2.0 mm
08:10 PM 27.7°F-2.4°C 27.7°F-2.4°C 100% Calm Calm -- 30.04 in1017.3 mb 0.00 in0.0 mm 0.00 in0.0 mm 0.08 in2.0 mm
08:00 PM 27.7°F-2.4°C 27.7°F-2.4°C 100% Calm Calm -- 30.04 in1017.3 mb 0.00 in0.0 mm 0.00 in0.0 mm 0.08 in2.0 mm
07:50 PM 27.7°F-2.4°C 27.7°F-2.4°C 100% Calm Calm -- 30.03 in1016.9 mb 0.00 in0.0 mm 0.00 in0.0 mm 0.08 in2.0 mm
07:40 PM 28.0°F-2.2°C 28.0°F-2.2°C 100% Calm Calm -- 30.03 in1016.9 mb 0.00 in0.0 mm 0.00 in0.0 mm 0.08 in2.0 mm
07:30 PM 28.0°F-2.2°C 28.0°F-2.2°C 100% Calm Calm -- 30.03 in1016.9 mb 0.00 in0.0 mm 0.00 in0.0 mm 0.08 in2.0 mm
07:20 PM 28.0°F-2.2°C 28.0°F-2.2°C 100% Calm Calm -- 30.02 in1016.6 mb 0.00 in0.0 mm 0.00 in0.0 mm 0.08 in2.0 mm
07:10 PM 28.0°F-2.2°C 28.0°F-2.2°C 100% Calm Calm -- 30.02 in1016.6 mb 0.00 in0.0 mm 0.00 in0.0 mm 0.08 in2.0 mm
07:00 PM 28.0°F-2.2°C 28.0°F-2.2°C 100% Calm Calm -- 30.02 in1016.6 mb 0.00 in0.0 mm 0.00 in0.0 mm 0.08 in2.0 mm
06:50 PM 28.0°F-2.2°C 28.0°F-2.2°C 100% Calm Calm -- 30.01 in1016.3 mb 0.00 in0.0 mm 0.00 in0.0 mm 0.08 in2.0 mm
06:40 PM 28.0°F-2.2°C 28.0°F-2.2°C 100% Calm Calm -- 30.02 in1016.6 mb 0.00 in0.0 mm 0.00 in0.0 mm 0.08 in2.0 mm
06:30 PM 28.0°F-2.2°C 28.0°F-2.2°C 100% Calm Calm -- 30.01 in1016.3 mb 0.00 in0.0 mm 0.00 in0.0 mm 0.08 in2.0 mm
06:20 PM 28.0°F-2.2°C 28.0°F-2.2°C 100% Calm Calm -- 30.00 in1015.9 mb 0.00 in0.0 mm 0.00 in0.0 mm 0.08 in2.0 mm
06:10 PM 28.2°F-2.1°C 28.2°F-2.1°C 100% Calm Calm -- 30.00 in1015.9 mb 0.00 in0.0 mm 0.00 in0.0 mm 0.08 in2.0 mm
06:00 PM 28.2°F-2.1°C 28.2°F-2.1°C 100% Calm Calm -- 30.00 in1015.9 mb 0.00 in0.0 mm 0.00 in0.0 mm 0.08 in2.0 mm
05:50 PM 28.6°F-1.9°C 28.6°F-1.9°C 100% Calm Calm -- 29.99 in1015.6 mb 0.00 in0.0 mm 0.00 in0.0 mm 0.08 in2.0 mm
05:40 PM 28.6°F-1.9°C 28.6°F-1.9°C 100% Calm Calm -- 30.00 in1015.9 mb 0.00 in0.0 mm 0.00 in0.0 mm 0.08 in2.0 mm
05:30 PM 28.6°F-1.9°C 28.6°F-1.9°C 100% Calm Calm -- 29.99 in1015.6 mb 0.00 in0.0 mm 0.00 in0.0 mm 0.08 in2.0 mm
05:20 PM 28.9°F-1.7°C 28.9°F-1.7°C 100% Calm Calm -- 29.99 in1015.6 mb 0.00 in0.0 mm 0.00 in0.0 mm 0.08 in2.0 mm
05:10 PM 29.1°F-1.6°C 29.1°F-1.6°C 100% Calm Calm -- 29.99 in1015.6 mb 0.00 in0.0 mm 0.00 in0.0 mm 0.08 in2.0 mm
05:00 PM 29.1°F-1.6°C 29.1°F-1.6°C 100% Calm Calm -- 29.98 in1015.2 mb 0.02 in0.5 mm 0.00 in0.0 mm 0.08 in2.0 mm
04:50 PM 29.1°F-1.6°C 29.1°F-1.6°C 100% Calm Calm -- 29.98 in1015.2 mb 0.02 in0.5 mm 0.00 in0.0 mm 0.08 in2.0 mm
04:40 PM 29.8°F-1.2°C 29.8°F-1.2°C 100% Calm Calm -- 29.98 in1015.2 mb 0.02 in0.5 mm 0.00 in0.0 mm 0.08 in2.0 mm
04:30 PM 30.0°F-1.1°C 30.0°F-1.1°C 100% Calm Calm -- 29.98 in1015.2 mb 0.02 in0.5 mm 0.00 in0.0 mm 0.08 in2.0 mm
04:20 PM 30.4°F-0.9°C 30.4°F-0.9°C 100% Calm Calm -- 29.98 in1015.2 mb 0.02 in0.5 mm 0.00 in0.0 mm 0.08 in2.0 mm
04:10 PM 30.9°F-0.6°C 30.9°F-0.6°C 100% Calm Calm -- 29.98 in1015.2 mb 0.02 in0.5 mm 0.12 in3.0 mm 0.08 in2.0 mm
04:00 PM 31.3°F-0.4°C 31.3°F-0.4°C 100% Calm Calm -- 29.98 in1015.2 mb 0.00 in0.0 mm 0.00 in0.0 mm 0.06 in1.5 mm
03:50 PM 32.2°F0.1°C 32.2°F0.1°C 100% Calm Calm -- 29.97 in1014.9 mb 0.02 in0.5 mm 0.00 in0.0 mm 0.06 in1.5 mm
03:40 PM 32.5°F0.3°C 32.5°F0.3°C 100% Calm Calm -- 29.97 in1014.9 mb 0.02 in0.5 mm 0.00 in0.0 mm 0.06 in1.5 mm
03:30 PM 32.7°F0.4°C 32.7°F0.4°C 100% Calm Calm -- 29.97 in1014.9 mb 0.02 in0.5 mm 0.00 in0.0 mm 0.06 in1.5 mm
03:20 PM 33.1°F0.6°C 33.1°F0.6°C 100% Calm Calm -- 29.97 in1014.9 mb 0.02 in0.5 mm 0.00 in0.0 mm 0.06 in1.5 mm
03:10 PM 34.0°F1.1°C 34.0°F1.1°C 100% Calm Calm -- 29.97 in1014.9 mb 0.02 in0.5 mm 0.00 in0.0 mm 0.06 in1.5 mm
03:00 PM 33.6°F0.9°C 33.6°F0.9°C 100% Calm Calm -- 29.96 in1014.6 mb 0.04 in1.0 mm 0.02 in0.5 mm 0.06 in1.5 mm
02:50 PM 33.4°F0.8°C 33.4°F0.8°C 100% Calm Calm -- 29.96 in1014.6 mb 0.02 in0.5 mm 0.00 in0.0 mm 0.04 in1.0 mm
02:40 PM 32.9°F0.5°C 32.9°F0.5°C 100% Calm Calm -- 29.96 in1014.6 mb 0.02 in0.5 mm 0.00 in0.0 mm 0.04 in1.0 mm
02:30 PM 32.9°F0.5°C 32.9°F0.5°C 100% Calm Calm -- 29.96 in1014.6 mb 0.02 in0.5 mm 0.00 in0.0 mm 0.04 in1.0 mm
02:20 PM 33.4°F0.8°C 33.4°F0.8°C 100% Calm Calm -- 29.97 in1014.9 mb 0.02 in0.5 mm 0.00 in0.0 mm 0.04 in1.0 mm
02:10 PM 33.6°F0.9°C 33.6°F0.9°C 100% Calm Calm -- 29.97 in1014.9 mb 0.02 in0.5 mm 0.12 in3.0 mm 0.04 in1.0 mm
02:00 PM 33.6°F0.9°C 33.6°F0.9°C 100% Calm Calm -- 29.97 in1014.9 mb 0.00 in0.0 mm 0.00 in0.0 mm 0.02 in0.5 mm
01:50 PM 33.4°F0.8°C 33.4°F0.8°C 100% Calm Calm -- 29.96 in1014.6 mb 0.02 in0.5 mm 0.00 in0.0 mm 0.02 in0.5 mm
01:40 PM 33.6°F0.9°C 33.6°F0.9°C 100% Calm Calm -- 29.96 in1014.6 mb 0.02 in0.5 mm 0.00 in0.0 mm 0.02 in0.5 mm
01:30 PM 33.3°F0.7°C 33.3°F0.7°C 100% Calm Calm -- 29.97 in1014.9 mb 0.02 in0.5 mm 0.00 in0.0 mm 0.02 in0.5 mm
01:20 PM 33.6°F0.9°C 33.6°F0.9°C 100% Calm Calm -- 29.97 in1014.9 mb 0.02 in0.5 mm 0.00 in0.0 mm 0.02 in0.5 mm
01:10 PM 34.3°F1.3°C 34.3°F1.3°C 100% Calm Calm -- 29.97 in1014.9 mb 0.02 in0.5 mm 0.00 in0.0 mm 0.02 in0.5 mm
01:00 PM 32.9°F0.5°C 32.9°F0.5°C 100% Calm Calm -- 29.98 in1015.2 mb 0.02 in0.5 mm 0.02 in0.5 mm 0.02 in0.5 mm
12:50 PM 33.3°F0.7°C 33.3°F0.7°C 100% Calm Calm -- 29.98 in1015.2 mb 0.00 in0.0 mm 0.00 in0.0 mm 0.00 in0.0 mm
12:40 PM 33.6°F0.9°C 33.6°F0.9°C 100% Calm Calm -- 29.98 in1015.2 mb 0.00 in0.0 mm 0.00 in0.0 mm 0.00 in0.0 mm
12:30 PM 32.5°F0.3°C 32.5°F0.3°C 100% Calm Calm -- 29.98 in1015.2 mb 0.00 in0.0 mm 0.00 in0.0 mm 0.00 in0.0 mm
12:20 PM 33.4°F0.8°C 33.4°F0.8°C 100% Calm Calm -- 29.99 in1015.6 mb 0.00 in0.0 mm 0.00 in0.0 mm 0.00 in0.0 mm
12:10 PM 32.4°F0.2°C 32.4°F0.2°C 100% Calm Calm -- 29.99 in1015.6 mb 0.00 in0.0 mm 0.00 in0.0 mm 0.00 in0.0 mm
12:00 PM 32.0°F0.0°C 32.0°F0.0°C 100% Calm Calm -- 29.98 in1015.2 mb 0.00 in0.0 mm 0.00 in0.0 mm 0.00 in0.0 mm
11:50 AM 32.2°F0.1°C 32.2°F0.1°C 100% Calm Calm -- 29.99 in1015.6 mb 0.00 in0.0 mm 0.00 in0.0 mm 0.00 in0.0 mm
11:40 AM 32.7°F0.4°C 32.7°F0.4°C 100% Calm Calm -- 29.99 in1015.6 mb 0.00 in0.0 mm 0.00 in0.0 mm 0.00 in0.0 mm
11:30 AM 34.3°F1.3°C 34.3°F1.3°C 100% Calm Calm -- 29.99 in1015.6 mb 0.00 in0.0 mm 0.00 in0.0 mm 0.00 in0.0 mm
11:20 AM 33.6°F0.9°C 33.6°F0.9°C 100% Calm Calm -- 29.99 in1015.6 mb 0.00 in0.0 mm 0.00 in0.0 mm 0.00 in0.0 mm
11:10 AM 33.1°F0.6°C 33.1°F0.6°C 100% Calm Calm -- 29.99 in1015.6 mb 0.00 in0.0 mm 0.00 in0.0 mm 0.00 in0.0 mm
11:00 AM 32.7°F0.4°C 32.7°F0.4°C 100% Calm Calm -- 29.99 in1015.6 mb 0.00 in0.0 mm 0.00 in0.0 mm 0.00 in0.0 mm
10:50 AM 34.0°F1.1°C 34.0°F1.1°C 100% Calm Calm -- 29.99 in1015.6 mb 0.00 in0.0 mm 0.00 in0.0 mm 0.00 in0.0 mm
10:40 AM 32.4°F0.2°C 32.4°F0.2°C 100% Calm Calm -- 29.99 in1015.6 mb 0.00 in0.0 mm 0.00 in0.0 mm 0.00 in0.0 mm
10:30 AM 31.5°F-0.3°C 31.5°F-0.3°C 100% Calm Calm -- 29.99 in1015.6 mb 0.00 in0.0 mm 0.00 in0.0 mm 0.00 in0.0 mm
10:20 AM 31.3°F-0.4°C 31.3°F-0.4°C 100% Calm Calm -- 29.99 in1015.6 mb 0.00 in0.0 mm 0.00 in0.0 mm 0.00 in0.0 mm
10:10 AM 28.9°F-1.7°C 28.9°F-1.7°C 100% Calm Calm -- 29.98 in1015.2 mb 0.00 in0.0 mm 0.00 in0.0 mm 0.00 in0.0 mm
10:00 AM 28.8°F-1.8°C 28.8°F-1.8°C 100% Calm Calm -- 29.99 in1015.6 mb 0.00 in0.0 mm 0.00 in0.0 mm 0.00 in0.0 mm
09:50 AM 28.2°F-2.1°C 28.2°F-2.1°C 100% Calm Calm -- 29.98 in1015.2 mb 0.00 in0.0 mm 0.00 in0.0 mm 0.00 in0.0 mm
09:40 AM 27.1°F-2.7°C 27.1°F-2.7°C 100% Calm Calm -- 29.98 in1015.2 mb 0.00 in0.0 mm 0.00 in0.0 mm 0.00 in0.0 mm
09:30 AM 26.4°F-3.1°C 26.4°F-3.1°C 100% Calm Calm -- 29.98 in1015.2 mb 0.00 in0.0 mm 0.00 in0.0 mm 0.00 in0.0 mm
09:20 AM 26.2°F-3.2°C 26.2°F-3.2°C 100% Calm Calm -- 29.97 in1014.9 mb 0.00 in0.0 mm 0.00 in0.0 mm 0.00 in0.0 mm
09:10 AM 25.7°F-3.5°C 25.7°F-3.5°C 100% Calm Calm -- 29.97 in1014.9 mb 0.00 in0.0 mm 0.00 in0.0 mm 0.00 in0.0 mm
09:00 AM 24.6°F-4.1°C 24.6°F-4.1°C 100% Calm Calm -- 29.97 in1014.9 mb 0.00 in0.0 mm 0.00 in0.0 mm 0.00 in0.0 mm
08:50 AM 24.1°F-4.4°C 24.1°F-4.4°C 100% Calm Calm -- 29.97 in1014.9 mb 0.00 in0.0 mm 0.00 in0.0 mm 0.00 in0.0 mm
08:40 AM 24.4°F-4.2°C 24.4°F-4.2°C 100% Calm Calm -- 29.97 in1014.9 mb 0.00 in0.0 mm 0.00 in0.0 mm 0.00 in0.0 mm
08:30 AM 24.1°F-4.4°C 24.1°F-4.4°C 100% Calm Calm -- 29.96 in1014.6 mb 0.00 in0.0 mm 0.00 in0.0 mm 0.00 in0.0 mm
08:20 AM 23.7°F-4.6°C 23.7°F-4.6°C 100% Calm Calm -- 29.96 in1014.6 mb 0.00 in0.0 mm 0.00 in0.0 mm 0.00 in0.0 mm
08:10 AM 23.7°F-4.6°C 23.7°F-4.6°C 100% Calm Calm -- 29.96 in1014.6 mb 0.00 in0.0 mm 0.00 in0.0 mm 0.00 in0.0 mm
08:00 AM 23.9°F-4.5°C 23.9°F-4.5°C 100% Calm Calm -- 29.96 in1014.6 mb 0.00 in0.0 mm 0.00 in0.0 mm 0.00 in0.0 mm
07:50 AM 23.9°F-4.5°C 23.9°F-4.5°C 100% Calm Calm -- 29.96 in1014.6 mb 0.00 in0.0 mm 0.00 in0.0 mm 0.00 in0.0 mm
07:40 AM 24.4°F-4.2°C 24.4°F-4.2°C 100% Calm Calm -- 29.95 in1014.2 mb 0.00 in0.0 mm 0.00 in0.0 mm 0.00 in0.0 mm
07:30 AM 24.6°F-4.1°C 24.6°F-4.1°C 100% Calm Calm -- 29.96 in1014.6 mb 0.00 in0.0 mm 0.00 in0.0 mm 0.00 in0.0 mm
07:20 AM 23.9°F-4.5°C 23.9°F-4.5°C 100% Calm Calm -- 29.95 in1014.2 mb 0.00 in0.0 mm 0.00 in0.0 mm 0.00 in0.0 mm
07:10 AM 23.9°F-4.5°C 23.9°F-4.5°C 100% Calm Calm -- 29.96 in1014.6 mb 0.00 in0.0 mm 0.00 in0.0 mm 0.00 in0.0 mm
07:00 AM 23.5°F-4.7°C 23.5°F-4.7°C 100% Calm Calm -- 29.96 in1014.6 mb 0.00 in0.0 mm 0.00 in0.0 mm 0.00 in0.0 mm
06:50 AM 23.7°F-4.6°C 23.7°F-4.6°C 100% Calm Calm -- 29.96 in1014.6 mb 0.00 in0.0 mm 0.00 in0.0 mm 0.00 in0.0 mm
06:40 AM 23.5°F-4.7°C 23.5°F-4.7°C 100% Calm Calm -- 29.96 in1014.6 mb 0.00 in0.0 mm 0.00 in0.0 mm 0.00 in0.0 mm
06:30 AM 23.5°F-4.7°C 23.5°F-4.7°C 100% Calm Calm -- 29.96 in1014.6 mb 0.00 in0.0 mm 0.00 in0.0 mm 0.00 in0.0 mm
06:20 AM 23.7°F-4.6°C 23.7°F-4.6°C 100% Calm Calm -- 29.95 in1014.2 mb 0.00 in0.0 mm 0.00 in0.0 mm 0.00 in0.0 mm
06:10 AM 23.5°F-4.7°C 23.5°F-4.7°C 100% Calm Calm -- 29.95 in1014.2 mb 0.00 in0.0 mm 0.00 in0.0 mm 0.00 in0.0 mm
06:00 AM 23.9°F-4.5°C 23.9°F-4.5°C 100% Calm Calm -- 29.95 in1014.2 mb 0.00 in0.0 mm 0.00 in0.0 mm 0.00 in0.0 mm
05:50 AM 24.1°F-4.4°C 24.1°F-4.4°C 100% Calm Calm -- 29.95 in1014.2 mb 0.00 in0.0 mm 0.00 in0.0 mm 0.00 in0.0 mm
05:40 AM 24.1°F-4.4°C 24.1°F-4.4°C 100% Calm Calm -- 29.95 in1014.2 mb 0.00 in0.0 mm 0.00 in0.0 mm 0.00 in0.0 mm
05:30 AM 23.9°F-4.5°C 23.9°F-4.5°C 100% Calm Calm -- 29.96 in1014.6 mb 0.00 in0.0 mm 0.00 in0.0 mm 0.00 in0.0 mm
05:20 AM 24.1°F-4.4°C 24.1°F-4.4°C 100% Calm Calm -- 29.96 in1014.6 mb 0.00 in0.0 mm 0.00 in0.0 mm 0.00 in0.0 mm
05:10 AM 24.1°F-4.4°C 24.1°F-4.4°C 100% Calm Calm -- 29.96 in1014.6 mb 0.00 in0.0 mm 0.00 in0.0 mm 0.00 in0.0 mm
05:00 AM 24.4°F-4.2°C 24.4°F-4.2°C 100% Calm Calm -- 29.96 in1014.6 mb 0.00 in0.0 mm 0.00 in0.0 mm 0.00 in0.0 mm
04:50 AM 24.6°F-4.1°C 24.6°F-4.1°C 100% Calm Calm -- 29.96 in1014.6 mb 0.00 in0.0 mm 0.00 in0.0 mm 0.00 in0.0 mm
04:40 AM 25.0°F-3.9°C 25.0°F-3.9°C 100% Calm Calm -- 29.97 in1014.9 mb 0.00 in0.0 mm 0.00 in0.0 mm 0.00 in0.0 mm
04:30 AM 24.8°F-4.0°C 24.8°F-4.0°C 100% Calm Calm -- 29.96 in1014.6 mb 0.00 in0.0 mm 0.00 in0.0 mm 0.00 in0.0 mm
04:20 AM 25.0°F-3.9°C 25.0°F-3.9°C 100% Calm Calm -- 29.96 in1014.6 mb 0.00 in0.0 mm 0.00 in0.0 mm 0.00 in0.0 mm
04:10 AM 25.2°F-3.8°C 25.2°F-3.8°C 100% Calm Calm -- 29.97 in1014.9 mb 0.00 in0.0 mm 0.00 in0.0 mm 0.00 in0.0 mm
04:00 AM 25.2°F-3.8°C 25.2°F-3.8°C 100% Calm Calm -- 29.97 in1014.9 mb 0.00 in0.0 mm 0.00 in0.0 mm 0.00 in0.0 mm
03:50 AM 25.2°F-3.8°C 25.2°F-3.8°C 100% Calm Calm -- 29.97 in1014.9 mb 0.00 in0.0 mm 0.00 in0.0 mm 0.00 in0.0 mm
03:40 AM 25.3°F-3.7°C 25.3°F-3.7°C 100% Calm Calm -- 29.97 in1014.9 mb 0.00 in0.0 mm 0.00 in0.0 mm 0.00 in0.0 mm
03:30 AM 25.3°F-3.7°C 25.3°F-3.7°C 100% Calm Calm -- 29.97 in1014.9 mb 0.00 in0.0 mm 0.00 in0.0 mm 0.00 in0.0 mm
03:20 AM 25.5°F-3.6°C 25.5°F-3.6°C 100% Calm Calm -- 29.97 in1014.9 mb 0.00 in0.0 mm 0.00 in0.0 mm 0.00 in0.0 mm
03:10 AM 25.3°F-3.7°C 25.3°F-3.7°C 100% Calm Calm -- 29.98 in1015.2 mb 0.00 in0.0 mm 0.00 in0.0 mm 0.00 in0.0 mm
03:00 AM 25.7°F-3.5°C 25.7°F-3.5°C 100% Calm Calm -- 29.98 in1015.2 mb 0.00 in0.0 mm 0.00 in0.0 mm 0.00 in0.0 mm
02:50 AM 25.9°F-3.4°C 25.9°F-3.4°C 100% Calm Calm -- 29.98 in1015.2 mb 0.00 in0.0 mm 0.00 in0.0 mm 0.00 in0.0 mm
02:40 AM 25.7°F-3.5°C 25.7°F-3.5°C 100% Calm Calm -- 29.97 in1014.9 mb 0.00 in0.0 mm 0.00 in0.0 mm 0.00 in0.0 mm
02:30 AM 25.7°F-3.5°C 25.7°F-3.5°C 100% Calm Calm -- 29.98 in1015.2 mb 0.00 in0.0 mm 0.00 in0.0 mm 0.00 in0.0 mm
02:20 AM 25.9°F-3.4°C 25.9°F-3.4°C 100% Calm Calm -- 29.98 in1015.2 mb 0.00 in0.0 mm 0.00 in0.0 mm 0.00 in0.0 mm
02:10 AM 25.9°F-3.4°C 25.9°F-3.4°C 100% Calm Calm -- 29.98 in1015.2 mb 0.00 in0.0 mm 0.00 in0.0 mm 0.00 in0.0 mm
02:02 AM 25.9°F-3.4°C 25.9°F-3.4°C 100% Calm Calm -- 29.98 in1015.2 mb 0.00 in0.0 mm 0.00 in0.0 mm 0.00 in0.0 mm
02:00 AM 26.2°F-3.2°C 26.2°F-3.2°C 100% Calm Calm -- 29.98 in1015.2 mb 0.00 in0.0 mm 0.00 in0.0 mm 0.00 in0.0 mm
01:50 AM 26.1°F-3.3°C 26.1°F-3.3°C 100% Calm Calm -- 29.98 in1015.2 mb 0.00 in0.0 mm 0.00 in0.0 mm 0.00 in0.0 mm
01:40 AM 26.1°F-3.3°C 26.1°F-3.3°C 100% Calm Calm -- 29.98 in1015.2 mb 0.00 in0.0 mm 0.00 in0.0 mm 0.00 in0.0 mm
01:30 AM 26.2°F-3.2°C 26.2°F-3.2°C 100% Calm Calm -- 29.98 in1015.2 mb 0.00 in0.0 mm 0.00 in0.0 mm 0.00 in0.0 mm
01:20 AM 26.1°F-3.3°C 26.1°F-3.3°C 100% Calm Calm -- 29.98 in1015.2 mb 0.00 in0.0 mm 0.00 in0.0 mm 0.00 in0.0 mm
01:10 AM 26.1°F-3.3°C 26.1°F-3.3°C 100% Calm Calm -- 29.98 in1015.2 mb 0.00 in0.0 mm 0.00 in0.0 mm 0.00 in0.0 mm
01:00 AM 26.2°F-3.2°C 26.2°F-3.2°C 100% Calm Calm -- 29.98 in1015.2 mb 0.00 in0.0 mm 0.00 in0.0 mm 0.00 in0.0 mm
12:50 AM 26.2°F-3.2°C 26.2°F-3.2°C 100% Calm Calm -- 29.98 in1015.2 mb 0.00 in0.0 mm 0.00 in0.0 mm 0.00 in0.0 mm
12:40 AM 26.1°F-3.3°C 26.1°F-3.3°C 100% Calm Calm -- 29.99 in1015.6 mb 0.00 in0.0 mm 0.00 in0.0 mm 0.00 in0.0 mm
12:30 AM 26.2°F-3.2°C 26.2°F-3.2°C 100% Calm Calm -- 29.99 in1015.6 mb 0.00 in0.0 mm 0.00 in0.0 mm 0.00 in0.0 mm
12:20 AM 26.2°F-3.2°C 26.2°F-3.2°C 100% Calm Calm -- 29.99 in1015.6 mb 0.00 in0.0 mm 0.00 in0.0 mm 0.00 in0.0 mm
12:10 AM 26.2°F-3.2°C 26.2°F-3.2°C 100% Calm Calm -- 30.00 in1015.9 mb 0.00 in0.0 mm 0.00 in0.0 mm 0.00 in0.0 mm
12:00 AM 26.2°F-3.2°C 26.2°F-3.2°C 100% Calm Calm -- 30.01 in1016.3 mb 0.00 in0.0 mm 0.00 in0.0 mm 0.00 in0.0 mm